Terminal Aerodrome Forecast
Issued by NWS Rapid City, SD

Home | Current Version | Previous Version | Graphics & Text | Print | Product List | Glossary On
Versions: 1 2 3 4 5 6 7 8 9 10 11 12 13 14 15 16 17 18 19
000
FTUS43 KUNR 251700
TAFRAP
TAF
KRAP 251720Z 2518/2618 33018G28KT P6SM -SHSNRA OVC035
     FM260000 33027G37KT P6SM BKN050
     FM260800 33015G25KT P6SM OVC050=

USA.gov is the U.S. government's official web portal to all federal, state and local government web resources and services.